createdAt,value
2018-11-14T00:01:51.878Z,8.40
2018-11-14T00:04:20.729Z,8.40
2018-11-14T00:06:49.590Z,8.40
2018-11-14T00:11:46.974Z,8.30
2018-11-14T00:14:15.810Z,8.40
2018-11-14T00:19:13.168Z,8.30
2018-11-14T00:29:08.059Z,8.20
2018-11-14T00:34:05.619Z,8.20
2018-11-14T00:36:34.485Z,8.10
2018-11-14T00:41:32.242Z,8.10
2018-11-14T00:46:29.595Z,8.10
2018-11-14T00:48:58.459Z,8.20
2018-11-14T00:53:55.821Z,8.10
2018-11-14T00:58:53.306Z,8.10
2018-11-14T01:01:22.825Z,8.10
2018-11-14T01:08:48.739Z,8.10
2018-11-14T01:11:17.554Z,8.20
2018-11-14T01:16:14.931Z,8.20
2018-11-14T01:18:43.782Z,8.20
2018-11-14T01:23:41.142Z,8.20
2018-11-14T01:26:10.158Z,8.30
2018-11-14T01:43:29.930Z,8.30
2018-11-14T01:45:59.616Z,8.30
2018-11-14T01:53:25.522Z,8.20
2018-11-14T01:58:22.926Z,8.30
2018-11-14T02:05:48.947Z,8.30
2018-11-14T02:08:17.869Z,8.20
2018-11-14T02:20:41.169Z,8.10
2018-11-14T02:23:10.034Z,8.10
2018-11-14T02:25:38.915Z,8.20
2018-11-14T02:35:34.619Z,8.20
2018-11-14T02:52:54.845Z,8.00
2018-11-14T03:00:21.703Z,8.00
2018-11-14T03:05:19.119Z,8.10
2018-11-14T03:07:47.962Z,8.00
2018-11-14T03:17:46.108Z,8.00
2018-11-14T03:32:43.844Z,7.90
2018-11-14T03:40:12.645Z,7.90
2018-11-14T03:45:11.455Z,7.90
2018-11-14T04:02:34.047Z,7.60
2018-11-14T04:05:02.953Z,7.60
2018-11-14T04:10:00.335Z,7.60
2018-11-14T04:12:29.286Z,7.60
2018-11-14T04:14:58.083Z,7.50
2018-11-14T04:19:55.502Z,7.40
2018-11-14T04:24:52.878Z,7.40
2018-11-14T04:29:50.292Z,7.40
2018-11-14T04:32:19.137Z,7.40
2018-11-14T04:34:48.014Z,7.40
2018-11-14T04:42:14.116Z,7.30
2018-11-14T04:44:42.975Z,7.40
2018-11-14T04:47:11.834Z,7.30
2018-11-14T04:49:40.744Z,7.30
2018-11-14T05:11:57.948Z,7.30
2018-11-14T05:14:26.795Z,7.30
2018-11-14T05:16:55.663Z,7.20
2018-11-14T05:21:53.401Z,7.20
2018-11-14T05:34:16.275Z,7.20
2018-11-14T05:36:45.122Z,7.20
2018-11-14T05:54:05.760Z,7.20
2018-11-14T05:56:34.674Z,7.10
2018-11-14T06:11:26.227Z,7.10
2018-11-14T06:13:55.334Z,7.20
2018-11-14T06:16:24.163Z,7.20
2018-11-14T06:18:53.042Z,7.10
2018-11-14T06:26:18.989Z,7.20
2018-11-14T06:28:47.904Z,7.10
2018-11-14T06:41:11.658Z,7.00
2018-11-14T06:43:40.491Z,7.00
2018-11-14T06:51:07.002Z,7.00
2018-11-14T06:53:35.867Z,7.00
2018-11-14T07:01:02.093Z,7.00
2018-11-14T07:05:59.562Z,7.00
2018-11-14T07:08:28.311Z,7.00
2018-11-14T07:10:57.220Z,7.10
2018-11-14T07:13:26.006Z,7.10
2018-11-14T07:18:23.459Z,7.20
2018-11-14T07:23:21.236Z,7.30
2018-11-14T07:25:50.086Z,7.30
2018-11-14T07:38:47.977Z,7.50
2018-11-14T07:41:18.326Z,7.60
2018-11-14T07:48:45.504Z,7.50
2018-11-14T07:56:11.414Z,7.50
2018-11-14T07:58:40.294Z,7.50
2018-11-14T08:01:09.140Z,7.50
2018-11-14T08:08:35.089Z,7.70
2018-11-14T08:21:00.471Z,7.90
2018-11-14T08:23:29.340Z,7.90
2018-11-14T08:30:55.802Z,8.00
2018-11-14T08:35:53.508Z,8.00
2018-11-14T08:43:20.535Z,8.10
2018-11-14T08:45:49.528Z,8.20
2018-11-14T08:48:18.447Z,8.20
2018-11-14T08:50:47.310Z,8.30
2018-11-14T08:58:13.785Z,8.40
2018-11-14T09:03:12.627Z,8.50
2018-11-14T09:10:38.590Z,8.60
2018-11-14T09:13:12.048Z,8.60
2018-11-14T09:15:40.954Z,8.60
2018-11-14T09:20:38.405Z,8.70
2018-11-14T09:23:07.454Z,8.70
2018-11-14T09:28:05.319Z,8.80
2018-11-14T09:30:34.195Z,8.80
2018-11-14T09:40:30.106Z,9.00
2018-11-14T09:42:58.973Z,9.00
2018-11-14T09:50:27.346Z,9.10
2018-11-14T09:55:26.106Z,9.20
2018-11-14T10:02:55.416Z,9.40
2018-11-14T10:17:50.385Z,9.70
2018-11-14T10:20:20.528Z,9.70
2018-11-14T10:22:49.406Z,9.80
2018-11-14T10:27:47.692Z,9.90
2018-11-14T10:40:18.499Z,10.20
2018-11-14T10:42:47.397Z,10.20
2018-11-14T10:45:17.563Z,10.20
2018-11-14T10:57:43.851Z,10.50
2018-11-14T11:02:52.961Z,10.60
2018-11-14T11:08:02.847Z,10.60
2018-11-14T11:10:37.132Z,10.70
2018-11-14T11:13:08.263Z,10.70
2018-11-14T11:18:14.979Z,10.80
2018-11-14T11:20:43.987Z,10.80
2018-11-14T11:25:41.959Z,11.00
2018-11-14T11:30:39.615Z,11.20
2018-11-14T11:38:05.975Z,11.30
2018-11-14T11:43:04.741Z,11.40
2018-11-14T11:48:02.884Z,11.40
2018-11-14T11:50:31.794Z,11.50
2018-11-14T11:55:29.593Z,11.50
2018-11-14T12:02:55.530Z,11.40
2018-11-14T12:07:52.963Z,11.60
2018-11-14T12:12:50.404Z,11.60
2018-11-14T12:15:19.234Z,11.70
2018-11-14T12:17:48.104Z,11.70
2018-11-14T12:20:16.973Z,11.80
2018-11-14T12:27:44.020Z,11.90
2018-11-14T12:35:13.367Z,12.00
2018-11-14T12:37:42.429Z,11.90
2018-11-14T12:40:12.438Z,12.00
2018-11-14T12:42:41.471Z,12.00
2018-11-14T12:45:12.245Z,12.10
2018-11-14T12:47:41.156Z,12.10
2018-11-14T13:02:36.569Z,12.00
2018-11-14T13:07:34.397Z,12.00
2018-11-14T13:12:31.759Z,12.10
2018-11-14T13:15:00.611Z,12.10
2018-11-14T13:32:20.585Z,12.10
2018-11-14T13:37:17.963Z,11.90
2018-11-14T13:39:46.814Z,12.00
2018-11-14T13:42:15.733Z,12.10
2018-11-14T13:44:44.612Z,12.10
2018-11-14T13:57:07.551Z,12.10
2018-11-14T13:59:36.460Z,12.00
2018-11-14T14:16:56.719Z,12.00
2018-11-14T14:19:25.637Z,12.00
2018-11-14T14:26:51.601Z,12.00
2018-11-14T14:29:21.207Z,12.00
2018-11-14T14:31:50.191Z,12.00
2018-11-14T14:36:47.607Z,11.90
2018-11-14T14:41:45.015Z,11.80
2018-11-14T14:46:42.475Z,11.80
2018-11-14T14:49:11.412Z,11.70
2018-11-14T14:56:37.339Z,11.60
2018-11-14T14:59:06.242Z,11.60
2018-11-14T15:01:35.143Z,11.50
2018-11-14T15:06:32.591Z,11.50
2018-11-14T15:09:01.491Z,11.50
2018-11-14T15:11:30.387Z,11.40
2018-11-14T15:13:59.277Z,11.40
2018-11-14T15:21:25.339Z,11.20
2018-11-14T15:28:51.374Z,11.10
2018-11-14T15:33:49.406Z,10.90
2018-11-14T15:38:46.814Z,10.90
2018-11-14T15:41:15.695Z,10.80
2018-11-14T15:43:44.938Z,10.80
2018-11-14T15:48:42.335Z,10.70
2018-11-14T15:51:11.323Z,10.60
2018-11-14T16:08:31.577Z,10.20
2018-11-14T16:11:00.491Z,10.20
2018-11-14T16:13:29.338Z,10.10
2018-11-14T16:18:26.736Z,10.00
2018-11-14T16:20:55.614Z,10.00
2018-11-14T16:25:53.011Z,9.90
2018-11-14T16:35:47.446Z,9.70
2018-11-14T16:40:44.843Z,9.60
2018-11-14T16:43:13.721Z,9.60
2018-11-14T16:45:42.596Z,9.50
2018-11-14T16:48:11.499Z,9.50
2018-11-14T16:53:08.880Z,9.40
2018-11-14T17:10:29.522Z,9.10
2018-11-14T17:17:56.686Z,9.00
2018-11-14T17:20:25.561Z,9.00
2018-11-14T17:25:23.419Z,9.00
2018-11-14T17:32:51.047Z,8.90
2018-11-14T17:35:20.098Z,8.80
2018-11-14T17:40:22.692Z,8.90
2018-11-14T17:42:52.148Z,8.90
2018-11-14T17:45:22.971Z,8.80
2018-11-14T17:47:52.167Z,8.80
2018-11-14T17:50:25.308Z,8.80
2018-11-14T17:55:23.899Z,8.80
2018-11-14T17:57:52.750Z,8.80
2018-11-14T18:00:22.999Z,8.80
2018-11-14T18:07:50.985Z,8.70
2018-11-14T18:10:21.168Z,8.70
2018-11-14T18:12:51.040Z,8.60
2018-11-14T18:15:20.102Z,8.60
2018-11-14T18:20:19.760Z,8.60
2018-11-14T18:22:49.328Z,8.60
2018-11-14T18:27:48.549Z,8.50
2018-11-14T18:30:18.932Z,8.50
2018-11-14T18:37:46.226Z,8.40
2018-11-14T18:42:46.041Z,8.40
2018-11-14T18:45:18.705Z,8.40
2018-11-14T18:47:47.822Z,8.30
2018-11-14T18:50:17.419Z,8.30
2018-11-14T18:55:16.782Z,8.30
2018-11-14T18:57:45.944Z,8.30
2018-11-14T19:07:42.752Z,8.20
2018-11-14T19:10:12.986Z,8.20
2018-11-14T19:12:42.382Z,8.20
2018-11-14T19:15:14.372Z,8.10
2018-11-14T19:20:15.391Z,8.20
2018-11-14T19:27:45.611Z,8.20
2018-11-14T19:32:48.695Z,8.10
2018-11-14T19:35:17.703Z,8.10
2018-11-14T19:37:47.630Z,8.10
2018-11-14T19:57:45.218Z,7.90
2018-11-14T20:00:16.326Z,7.90
2018-11-14T20:02:45.190Z,7.90
2018-11-14T20:07:43.955Z,7.90
2018-11-14T20:10:19.586Z,7.80
2018-11-14T20:12:49.030Z,7.90
2018-11-14T20:17:48.351Z,7.80
2018-11-14T20:20:19.480Z,7.90
2018-11-14T20:22:48.369Z,7.70
2018-11-14T20:27:46.111Z,7.80
2018-11-14T20:42:44.491Z,7.80
2018-11-14T20:50:13.985Z,7.70
2018-11-14T20:52:43.463Z,7.80
2018-11-14T21:10:10.276Z,7.60
2018-11-14T21:12:39.830Z,7.70
2018-11-14T21:15:10.333Z,7.60
2018-11-14T21:20:09.118Z,7.60
2018-11-14T21:25:08.420Z,7.60
2018-11-14T21:30:08.151Z,7.60
2018-11-14T21:32:37.274Z,7.50
2018-11-14T21:35:11.191Z,7.50
2018-11-14T21:40:09.494Z,7.50
2018-11-14T21:42:38.744Z,7.50
2018-11-14T21:50:11.115Z,7.50
2018-11-14T21:55:09.483Z,7.40
2018-11-14T22:17:28.726Z,7.20
2018-11-14T22:19:57.605Z,7.20
2018-11-14T22:22:26.478Z,7.20
2018-11-14T22:32:20.978Z,7.20
2018-11-14T22:39:46.982Z,7.10
2018-11-14T22:44:44.405Z,7.00
2018-11-14T22:49:41.818Z,6.90
2018-11-14T22:54:39.242Z,6.80
2018-11-14T23:04:34.059Z,6.80
2018-11-14T23:07:02.943Z,6.80
2018-11-14T23:09:31.836Z,6.80
2018-11-14T23:12:00.721Z,6.80
2018-11-14T23:14:29.607Z,6.70
2018-11-14T23:19:27.006Z,6.70
2018-11-14T23:29:21.518Z,6.70
2018-11-14T23:34:18.890Z,6.60
2018-11-14T23:36:47.918Z,6.70
2018-11-14T23:39:16.817Z,6.60
2018-11-14T23:41:45.687Z,6.70
2018-11-14T23:44:14.574Z,6.70
2018-11-14T23:49:12.030Z,6.70
2018-11-14T23:51:40.911Z,6.70
2018-11-14T23:56:38.359Z,6.60
